Time;durP1;ratioP1;P1;durP2;ratioP2;P2;SDS_P1;SDS_P2;PMS_P1;PMS_P2;Temp;Humidity;BMP_temperature;BMP_pressure;BME280_temperature;BME280_humidity;BME280_pressure;Samples;Min_cycle;Max_cycle;Signal;HPM_P1;HPM_P2
2023/11/04 00:02:04;;;;;;;;;;;;;;;16.96;nan;98797.72;5068842;28;19973;-88
2023/11/04 00:04:30;;;;;;;;;;;;;;;16.96;nan;98799.63;5069269;28;19928;-88
2023/11/04 00:06:55;;;;;;;;;;;;;;;16.94;nan;98799.19;5068202;28;19920;-88
2023/11/04 00:09:20;;;;;;;;;;;;;;;16.96;nan;98799.63;5062055;28;20499;-89
2023/11/04 00:11:46;;;;;;;;;;;;;;;16.93;nan;98806.50;5064494;28;19924;-88
2023/11/04 00:14:11;;;;;;;;;;;;;;;16.91;nan;98808.78;5064688;28;19939;-87
2023/11/04 00:16:36;;;;;;;;;;;;;;;16.95;nan;98812.38;5062783;28;19920;-88
2023/11/04 00:19:02;;;;;;;;;;;;;;;16.90;nan;98807.97;5068693;28;19948;-89
2023/11/04 00:21:27;;;;;;;;;;;;;;;16.87;nan;98819.44;5067673;28;19916;-89
2023/11/04 00:23:52;;;;;;;;;;;;;;;16.91;nan;98816.88;5068479;28;20018;-89
2023/11/04 00:26:19;;;;;;;;;;;;;;;16.89;nan;98822.63;5072026;28;20015;-90
2023/11/04 00:28:45;;;;;;;;;;;;;;;16.87;nan;98826.78;5068359;28;19932;-89
2023/11/04 00:31:11;;;;;;;;;;;;;;;16.89;nan;98824.56;5066830;28;19921;-89
2023/11/04 00:33:36;;;;;;;;;;;;;;;16.85;nan;98827.13;5070752;28;19924;-89
2023/11/04 00:36:02;;;;;;;;;;;;;;;16.80;nan;98826.56;5067037;28;19920;-90
2023/11/04 00:38:27;;;;;;;;;;;;;;;16.79;nan;98824.97;5069591;28;20339;-90
2023/11/04 00:40:52;;;;;;;;;;;;;;;16.77;nan;98824.53;5066934;28;19923;-89
2023/11/04 00:43:18;;;;;;;;;;;;;;;16.76;nan;98839.97;5070712;28;20411;-89
2023/11/04 00:45:43;;;;;;;;;;;;;;;16.77;nan;98841.53;5068911;28;19913;-91
2023/11/04 00:48:08;;;;;;;;;;;;;;;16.79;nan;98838.50;5069049;28;19924;-88
2023/11/04 00:50:36;;;;;;;;;;;;;;;16.76;nan;98852.69;5068757;28;19917;-89
2023/11/04 00:53:01;;;;;;;;;;;;;;;16.78;nan;98847.72;5069130;28;20456;-90
2023/11/04 00:55:27;;;;;;;;;;;;;;;16.79;nan;98855.50;5071437;28;19939;-88
2023/11/04 00:57:52;;;;;;;;;;;;;;;16.81;nan;98850.56;5067144;28;19917;-90
2023/11/04 01:00:23;;;;;;;;;;;;;;;16.85;nan;98858.78;5070897;28;19928;-90
2023/11/04 01:02:49;;;;;;;;;;;;;;;16.87;nan;98860.03;5073484;28;19943;-90
2023/11/04 01:05:14;;;;;;;;;;;;;;;16.85;nan;98861.50;5071852;28;20412;-90
2023/11/04 01:07:39;;;;;;;;;;;;;;;16.85;nan;98864.97;5071050;28;19912;-90
2023/11/04 01:10:05;;;;;;;;;;;;;;;16.81;nan;98864.06;5068912;28;19924;-90
2023/11/04 01:12:30;;;;;;;;;;;;;;;16.78;nan;98869.38;5072729;28;19920;-89
2023/11/04 01:14:55;;;;;;;;;;;;;;;16.74;nan;98869.25;5070147;28;19921;-90
2023/11/04 01:17:20;;;;;;;;;;;;;;;16.74;nan;98880.06;5068094;28;19920;-90
2023/11/04 01:19:46;;;;;;;;;;;;;;;16.76;nan;98875.13;5067611;28;19923;-89
2023/11/04 01:22:11;;;;;;;;;;;;;;;16.80;nan;98869.81;5068396;28;20503;-89
2023/11/04 01:24:36;;;;;;;;;;;;;;;16.74;nan;98869.25;5069500;28;19921;-89
2023/11/04 01:27:02;;;;;;;;;;;;;;;16.76;nan;98874.31;5064421;28;19943;-90
2023/11/04 01:29:27;;;;;;;;;;;;;;;16.75;nan;98873.53;5071345;28;19959;-90
2023/11/04 01:31:52;;;;;;;;;;;;;;;16.77;nan;98873.19;5064532;28;20364;-89
2023/11/04 01:34:17;;;;;;;;;;;;;;;16.80;nan;98880.63;5071841;28;19970;-89
2023/11/04 01:36:43;;;;;;;;;;;;;;;16.77;nan;98878.59;5069372;28;19917;-89
2023/11/04 01:39:08;;;;;;;;;;;;;;;16.82;nan;98881.88;5073035;28;19962;-89
2023/11/04 01:41:33;;;;;;;;;;;;;;;16.81;nan;98880.31;5070036;28;20010;-90
2023/11/04 01:43:59;;;;;;;;;;;;;;;16.80;nan;98872.53;5073384;28;19922;-89
2023/11/04 01:46:25;;;;;;;;;;;;;;;16.77;nan;98884.81;5075270;28;19916;-89
2023/11/04 01:48:50;;;;;;;;;;;;;;;16.75;nan;98880.84;5075176;28;19928;-89
2023/11/04 01:51:15;;;;;;;;;;;;;;;16.77;nan;98884.00;5065745;28;19930;-90
2023/11/04 01:53:46;;;;;;;;;;;;;;;16.75;nan;98880.84;5064772;28;20328;-89
2023/11/04 01:56:13;;;;;;;;;;;;;;;16.76;nan;98875.13;5081444;28;21620;-90
2023/11/04 01:58:39;;;;;;;;;;;;;;;16.74;nan;98881.97;5072084;28;19931;-89
2023/11/04 02:01:05;;;;;;;;;;;;;;;16.77;nan;98889.44;5071123;28;19916;-90
2023/11/04 02:03:30;;;;;;;;;;;;;;;16.77;nan;98889.44;5068867;28;19920;-90
2023/11/04 02:05:56;;;;;;;;;;;;;;;16.72;nan;98885.03;5073141;28;19916;-90
2023/11/04 02:08:21;;;;;;;;;;;;;;;16.74;nan;98890.09;5068419;28;20489;-90
2023/11/04 02:10:46;;;;;;;;;;;;;;;16.71;nan;98896.19;5070944;28;19920;-90
2023/11/04 02:13:12;;;;;;;;;;;;;;;16.66;nan;98899.03;5072095;28;19916;-90
2023/11/04 02:15:37;;;;;;;;;;;;;;;16.63;nan;98889.69;5069565;28;19923;-90
2023/11/04 02:18:03;;;;;;;;;;;;;;;16.59;nan;98894.97;5069098;28;19917;-89
2023/11/04 02:20:32;;;;;;;;;;;;;;;16.54;nan;98892.47;5074470;28;19921;-90
2023/11/04 02:22:57;;;;;;;;;;;;;;;16.53;nan;98901.72;5067221;28;20346;-90
2023/11/04 02:25:22;;;;;;;;;;;;;;;16.46;nan;98900.66;5072715;28;19931;-90
2023/11/04 02:27:47;;;;;;;;;;;;;;;16.45;nan;98899.06;5071105;28;19969;-90
2023/11/04 02:30:13;;;;;;;;;;;;;;;16.44;nan;98898.28;5073718;28;20019;-90
2023/11/04 02:32:38;;;;;;;;;;;;;;;16.31;nan;98905.53;5077191;28;20300;-90
2023/11/04 02:35:04;;;;;;;;;;;;;;;16.35;nan;98908.41;5075968;28;19974;-90
2023/11/04 02:37:29;;;;;;;;;;;;;;;16.34;nan;98909.53;5073951;28;20726;-90
2023/11/04 02:39:55;;;;;;;;;;;;;;;16.31;nan;98923.66;5071442;28;19977;-90
2023/11/04 02:42:20;;;;;;;;;;;;;;;16.31;nan;98929.06;5072774;28;20387;-90
2023/11/04 02:44:45;;;;;;;;;;;;;;;16.29;nan;98929.41;5070539;28;19916;-90
2023/11/04 02:47:11;;;;;;;;;;;;;;;16.24;nan;98929.59;5069194;28;19917;-90
2023/11/04 02:49:36;;;;;;;;;;;;;;;16.24;nan;98920.72;5068288;28;19931;-90
2023/11/04 02:52:02;;;;;;;;;;;;;;;16.25;nan;98933.09;5076549;28;19974;-90
2023/11/04 02:54:28;;;;;;;;;;;;;;;16.24;nan;98934.22;5071825;28;19920;-90
2023/11/04 02:56:53;;;;;;;;;;;;;;;16.19;nan;98935.22;5067048;28;19920;-90
2023/11/04 02:59:18;;;;;;;;;;;;;;;16.15;nan;98936.19;5070586;28;19917;-89
2023/11/04 03:01:44;;;;;;;;;;;;;;;16.18;nan;98949.06;5072024;28;19916;-90
2023/11/04 03:04:10;;;;;;;;;;;;;;;16.19;nan;98934.44;5075108;28;20007;-89
2023/11/04 03:06:35;;;;;;;;;;;;;;;16.18;nan;98946.34;5070823;28;19917;-89
2023/11/04 03:09:01;;;;;;;;;;;;;;;16.21;nan;98954.59;5073257;28;19931;-89
2023/11/04 03:11:26;;;;;;;;;;;;;;;16.21;nan;98961.91;5068569;28;20552;-89
2023/11/04 03:13:51;;;;;;;;;;;;;;;16.12;nan;98953.06;5070301;28;19977;-88
2023/11/04 03:16:18;;;;;;;;;;;;;;;16.13;nan;98962.75;5067277;28;19927;-90
2023/11/04 03:18:44;;;;;;;;;;;;;;;16.11;nan;98954.19;5069474;28;20384;-90
2023/11/04 03:21:09;;;;;;;;;;;;;;;16.07;nan;98962.16;5076005;28;19924;-90
2023/11/04 03:23:34;;;;;;;;;;;;;;;16.01;nan;98956.16;5069759;28;19916;-89
2023/11/04 03:26:00;;;;;;;;;;;;;;;15.99;nan;98958.41;5071604;28;20355;-90
2023/11/04 03:28:25;;;;;;;;;;;;;;;16.01;nan;98961.56;5070891;28;19986;-90
2023/11/04 03:30:51;;;;;;;;;;;;;;;16.05;nan;98958.19;5064905;28;20232;-89
2023/11/04 03:33:17;;;;;;;;;;;;;;;16.09;nan;98956.41;5073296;28;19938;-89
2023/11/04 03:35:42;;;;;;;;;;;;;;;16.03;nan;98961.22;5064834;28;19917;-90
2023/11/04 03:38:07;;;;;;;;;;;;;;;16.01;nan;98961.56;5071900;28;20003;-89
2023/11/04 03:40:33;;;;;;;;;;;;;;;15.94;nan;98955.06;5068687;28;19921;-88
2023/11/04 03:42:58;;;;;;;;;;;;;;;15.93;nan;98965.09;5065325;28;19956;-90
2023/11/04 03:45:24;;;;;;;;;;;;;;;15.84;nan;98961.66;5064927;28;20306;-90
2023/11/04 03:47:49;;;;;;;;;;;;;;;15.84;nan;98960.88;5068288;28;19912;-90
2023/11/04 03:50:14;;;;;;;;;;;;;;;15.79;nan;98958.31;5071925;28;19927;-89
2023/11/04 03:52:40;;;;;;;;;;;;;;;15.78;nan;98951.34;5067351;28;19927;-89
2023/11/04 03:55:05;;;;;;;;;;;;;;;15.77;nan;98955.16;5065656;28;19939;-90
2023/11/04 03:57:30;;;;;;;;;;;;;;;15.69;nan;98962.19;5063419;28;19931;-90
2023/11/04 03:59:55;;;;;;;;;;;;;;;15.70;nan;98967.28;5066660;28;19952;-90
2023/11/04 04:02:21;;;;;;;;;;;;;;;15.65;nan;98961.28;5069134;28;20469;-89
2023/11/04 04:04:46;;;;;;;;;;;;;;;15.64;nan;98968.59;5077346;28;19921;-90
2023/11/04 04:07:11;;;;;;;;;;;;;;;15.53;nan;98964.63;5068190;28;19932;-89
2023/11/04 04:09:37;;;;;;;;;;;;;;;15.49;nan;98987.19;5071422;28;19928;-90
2023/11/04 04:12:02;;;;;;;;;;;;;;;15.48;nan;98964.00;5071372;28;20315;-89
2023/11/04 04:14:28;;;;;;;;;;;;;;;15.48;nan;98980.22;5070689;28;19963;-89
2023/11/04 04:16:53;;;;;;;;;;;;;;;15.42;nan;98983.06;5067642;28;19916;-90
2023/11/04 04:19:18;;;;;;;;;;;;;;;15.39;nan;98974.81;5071094;28;19998;-90
2023/11/04 04:21:44;;;;;;;;;;;;;;;15.37;nan;98980.53;5069735;28;19992;-89
2023/11/04 04:24:09;;;;;;;;;;;;;;;15.41;nan;98984.19;5068878;28;20678;-90
2023/11/04 04:26:34;;;;;;;;;;;;;;;15.37;nan;98983.25;5068447;28;21659;-89
2023/11/04 04:28:59;;;;;;;;;;;;;;;15.37;nan;98988.63;5064752;28;20573;-89
2023/11/04 04:31:27;;;;;;;;;;;;;;;15.40;nan;98984.50;5059145;28;19973;-90
2023/11/04 04:33:52;;;;;;;;;;;;;;;15.36;nan;98981.66;5063080;28;19967;-90
2023/11/04 04:36:18;;;;;;;;;;;;;;;15.39;nan;98982.91;5067024;28;19964;-88
2023/11/04 04:38:44;;;;;;;;;;;;;;;15.37;nan;98982.44;5069681;28;20320;-90
2023/11/04 04:41:10;;;;;;;;;;;;;;;15.34;nan;98980.41;5069644;28;19917;-90
2023/11/04 04:43:36;;;;;;;;;;;;;;;15.31;nan;98992.63;5068707;28;19924;-89
2023/11/04 04:46:02;;;;;;;;;;;;;;;15.27;nan;98986.31;5071888;28;20397;-90
2023/11/04 04:48:28;;;;;;;;;;;;;;;15.18;nan;98988.22;5064095;28;19920;-90
2023/11/04 04:50:54;;;;;;;;;;;;;;;15.15;nan;98996.16;5067358;28;19924;-89
2023/11/04 04:53:19;;;;;;;;;;;;;;;15.10;nan;98997.13;5067643;28;19917;-90
2023/11/04 04:55:45;;;;;;;;;;;;;;;14.98;nan;98994.28;5067136;28;19920;-90
2023/11/04 04:58:11;;;;;;;;;;;;;;;14.87;nan;99006.50;5063515;28;19927;-89
2023/11/04 05:00:36;;;;;;;;;;;;;;;14.80;nan;98998.91;5069431;28;20030;-89
2023/11/04 05:03:03;;;;;;;;;;;;;;;14.76;nan;98997.97;5066086;28;20455;-90
2023/11/04 05:05:28;;;;;;;;;;;;;;;14.73;nan;98993.22;5068957;28;19951;-90
2023/11/04 05:07:53;;;;;;;;;;;;;;;14.76;nan;98993.34;5071977;28;19952;-89
2023/11/04 05:10:19;;;;;;;;;;;;;;;14.73;nan;98998.59;5070832;28;19939;-89
2023/11/04 05:12:44;;;;;;;;;;;;;;;14.71;nan;99001.59;5070387;28;20003;-89
2023/11/04 05:15:09;;;;;;;;;;;;;;;14.71;nan;99006.97;5069848;28;19950;-90
2023/11/04 05:17:35;;;;;;;;;;;;;;;14.66;nan;99014.44;5066159;28;19917;-90
2023/11/04 05:20:01;;;;;;;;;;;;;;;14.65;nan;99012.84;5065126;28;19920;-90
2023/11/04 05:22:26;;;;;;;;;;;;;;;14.58;nan;99016.03;5068916;28;19917;-89
2023/11/04 05:24:51;;;;;;;;;;;;;;;14.60;nan;99016.50;5066581;28;19959;-89
2023/11/04 05:27:17;;;;;;;;;;;;;;;14.59;nan;99024.91;5064284;28;19916;-89
2023/11/04 05:29:42;;;;;;;;;;;;;;;14.50;nan;99022.19;5064513;28;20074;-88
2023/11/04 05:32:08;;;;;;;;;;;;;;;14.49;nan;99015.22;5070418;28;19924;-89
2023/11/04 05:34:33;;;;;;;;;;;;;;;14.46;nan;99023.94;5069126;28;19916;-90
2023/11/04 05:36:58;;;;;;;;;;;;;;;14.48;nan;99021.72;5067906;28;19920;-88
2023/11/04 05:39:24;;;;;;;;;;;;;;;14.50;nan;99022.97;5069822;28;19918;-89
2023/11/04 05:41:49;;;;;;;;;;;;;;;14.49;nan;99026.78;5066393;28;19916;-90
2023/11/04 05:44:15;;;;;;;;;;;;;;;14.47;nan;99023.63;5072196;28;19956;-89
2023/11/04 05:46:40;;;;;;;;;;;;;;;14.45;nan;99025.03;5065529;28;20369;-90
2023/11/04 05:49:06;;;;;;;;;;;;;;;14.43;nan;99030.75;5070264;28;19920;-90
2023/11/04 05:51:31;;;;;;;;;;;;;;;14.39;nan;99029.78;5067824;28;20405;-89
2023/11/04 05:53:57;;;;;;;;;;;;;;;14.35;nan;99038.78;5066671;28;19920;-90
2023/11/04 05:56:22;;;;;;;;;;;;;;;14.28;nan;99028.47;5067058;28;20372;-89
2023/11/04 05:58:47;;;;;;;;;;;;;;;14.25;nan;99036.41;5061718;28;20652;-89
2023/11/04 06:01:13;;;;;;;;;;;;;;;14.18;nan;99043.03;5069638;28;19920;-88
2023/11/04 06:03:38;;;;;;;;;;;;;;;14.10;nan;99035.72;5067893;28;19928;-89
2023/11/04 06:06:04;;;;;;;;;;;;;;;14.03;nan;99038.09;5070862;28;19916;-89
2023/11/04 06:08:29;;;;;;;;;;;;;;;14.01;nan;99043.00;5070857;28;19924;-89
2023/11/04 06:10:54;;;;;;;;;;;;;;;13.97;nan;99047.38;5070187;28;19916;-89
2023/11/04 06:13:20;;;;;;;;;;;;;;;13.98;nan;99042.78;5063368;28;19944;-89
2023/11/04 06:15:46;;;;;;;;;;;;;;;13.90;nan;99047.06;5063931;28;19916;-89
2023/11/04 06:18:11;;;;;;;;;;;;;;;13.87;nan;99053.84;5069783;28;19931;-90
2023/11/04 06:20:36;;;;;;;;;;;;;;;13.84;nan;99045.63;5061425;28;20292;-89
2023/11/04 06:23:01;;;;;;;;;;;;;;;13.81;nan;99054.28;5066481;28;19960;-89
2023/11/04 06:25:28;;;;;;;;;;;;;;;13.82;nan;99050.50;5066505;28;19931;-89
2023/11/04 06:27:53;;;;;;;;;;;;;;;13.84;nan;99053.69;5068216;28;20018;-89
2023/11/04 06:30:18;;;;;;;;;;;;;;;13.82;nan;99054.00;5058850;28;20044;-90
2023/11/04 06:32:44;;;;;;;;;;;;;;;13.78;nan;99049.53;5062856;28;19920;-90
2023/11/04 06:35:09;;;;;;;;;;;;;;;13.78;nan;99049.53;5066378;28;19917;-89
2023/11/04 06:37:37;;;;;;;;;;;;;;;13.74;nan;99056.63;5071172;28;20181;-90
2023/11/04 06:40:04;;;;;;;;;;;;;;;13.76;nan;99060.59;5067727;28;19997;-90
2023/11/04 06:42:30;;;;;;;;;;;;;;;13.74;nan;99062.81;5065464;28;19917;-90
2023/11/04 06:44:55;;;;;;;;;;;;;;;13.74;nan;99062.03;5070549;28;20413;-90
2023/11/04 06:47:21;;;;;;;;;;;;;;;13.75;nan;99066.31;5070990;28;19921;-90
2023/11/04 06:49:46;;;;;;;;;;;;;;;13.79;nan;99065.38;5065536;28;19924;-88
2023/11/04 06:52:11;;;;;;;;;;;;;;;13.81;nan;99065.84;5076275;28;19920;-90
2023/11/04 06:54:37;;;;;;;;;;;;;;;13.87;nan;99061.13;5070706;28;19917;-89
2023/11/04 06:57:02;;;;;;;;;;;;;;;13.94;nan;99066.06;5073184;28;19982;-90
2023/11/04 06:59:28;;;;;;;;;;;;;;;13.99;nan;99066.72;5066910;28;20395;-90
2023/11/04 07:01:53;;;;;;;;;;;;;;;14.05;nan;99067.38;5074510;28;19951;-90
2023/11/04 07:04:18;;;;;;;;;;;;;;;14.06;nan;99068.97;5068879;28;19920;-90
2023/11/04 07:06:44;;;;;;;;;;;;;;;14.10;nan;99061.84;5069201;28;20703;-89
2023/11/04 07:09:10;;;;;;;;;;;;;;;14.19;nan;99071.56;5070443;28;20451;-89
2023/11/04 07:11:35;;;;;;;;;;;;;;;14.20;nan;99067.75;5072284;28;19924;-90
2023/11/04 07:14:01;;;;;;;;;;;;;;;14.23;nan;99062.84;5062572;28;19921;-91
2023/11/04 07:16:26;;;;;;;;;;;;;;;14.29;nan;99066.97;5061030;28;20062;-91
2023/11/04 07:18:51;;;;;;;;;;;;;;;14.32;nan;99060.97;5073808;28;19916;-91
2023/11/04 07:21:18;;;;;;;;;;;;;;;14.42;nan;99063.38;5073853;28;20070;-90
2023/11/04 07:23:43;;;;;;;;;;;;;;;14.40;nan;99063.69;5071645;28;19917;-90
2023/11/04 07:26:09;;;;;;;;;;;;;;;14.42;nan;99060.69;5081570;28;19927;-90
2023/11/04 07:28:35;;;;;;;;;;;;;;;14.47;nan;99058.66;5073638;28;19997;-90
2023/11/04 07:31:02;;;;;;;;;;;;;;;14.39;nan;99061.31;5066520;28;19917;-90
2023/11/04 07:33:27;;;;;;;;;;;;;;;14.36;nan;99053.84;5070343;28;19916;-90
2023/11/04 07:35:52;;;;;;;;;;;;;;;14.32;nan;99048.28;5070969;28;19939;-90
2023/11/04 07:38:18;;;;;;;;;;;;;;;14.32;nan;99055.56;5069483;28;19916;-90
2023/11/04 07:40:43;;;;;;;;;;;;;;;14.31;nan;99060.16;5064861;28;19974;-90
2023/11/04 07:43:09;;;;;;;;;;;;;;;14.33;nan;99059.84;5071637;28;19917;-90
2023/11/04 07:45:35;;;;;;;;;;;;;;;14.35;nan;99053.03;5067299;28;19917;-90
2023/11/04 07:48:00;;;;;;;;;;;;;;;14.38;nan;99051.63;5064781;28;19916;-90
2023/11/04 07:50:25;;;;;;;;;;;;;;;14.43;nan;99051.47;5065251;28;19967;-90
2023/11/04 07:52:50;;;;;;;;;;;;;;;14.41;nan;99059.88;5069062;28;19955;-90
2023/11/04 07:55:16;;;;;;;;;;;;;;;14.44;nan;99061.97;5063258;28;19975;-89
2023/11/04 07:57:42;;;;;;;;;;;;;;;14.52;nan;99066.56;5068695;28;19917;-90
2023/11/04 08:00:08;;;;;;;;;;;;;;;14.54;nan;99058.16;5066356;28;19916;-90
2023/11/04 08:02:35;;;;;;;;;;;;;;;14.56;nan;99055.97;5059956;28;19923;-90
2023/11/04 08:05:00;;;;;;;;;;;;;;;14.60;nan;99051.53;5072570;28;20114;-91
2023/11/04 08:07:26;;;;;;;;;;;;;;;14.61;nan;99055.81;5063527;28;19988;-90
2023/11/04 08:09:51;;;;;;;;;;;;;;;14.64;nan;99054.41;5072852;28;19977;-90
2023/11/04 08:12:17;;;;;;;;;;;;;;;14.61;nan;99052.34;5075021;28;20416;-90
2023/11/04 08:14:42;;;;;;;;;;;;;;;14.62;nan;99057.41;5081783;28;19962;-91
2023/11/04 08:17:07;;;;;;;;;;;;;;;14.66;nan;99058.34;5070624;28;19920;-90
2023/11/04 08:19:33;;;;;;;;;;;;;;;14.62;nan;99060.09;5070904;28;19964;-90
2023/11/04 08:21:58;;;;;;;;;;;;;;;14.60;nan;99059.63;5072787;28;19999;-90
2023/11/04 08:24:23;;;;;;;;;;;;;;;14.64;nan;99051.69;5063304;28;20384;-90
2023/11/04 08:26:49;;;;;;;;;;;;;;;14.74;nan;99062.97;5066750;28;19912;-90
2023/11/04 08:29:14;;;;;;;;;;;;;;;14.84;nan;99066.47;5070059;28;19927;-90
2023/11/04 08:31:40;;;;;;;;;;;;;;;14.85;nan;99049.16;5075749;28;19916;-91
2023/11/04 08:34:07;;;;;;;;;;;;;;;14.91;nan;99064.09;5054485;28;22303;-91
2023/11/04 08:36:34;;;;;;;;;;;;;;;15.00;nan;99056.78;5073339;28;19912;-91
2023/11/04 08:38:59;;;;;;;;;;;;;;;15.00;nan;99051.38;5072755;28;19916;-90
2023/11/04 08:41:24;;;;;;;;;;;;;;;15.10;nan;99051.88;5071547;28;19923;-90
2023/11/04 08:43:50;;;;;;;;;;;;;;;15.19;nan;99054.53;5066838;28;19955;-90
2023/11/04 08:46:18;;;;;;;;;;;;;;;15.23;nan;99058.19;5073189;28;19970;-90
2023/11/04 08:48:44;;;;;;;;;;;;;;;15.25;nan;99050.56;5074186;28;20382;-91
2023/11/04 08:51:09;;;;;;;;;;;;;;;15.32;nan;99047.38;5069997;28;19967;-91
2023/11/04 08:53:35;;;;;;;;;;;;;;;15.32;nan;99045.47;5065378;28;19920;-90
2023/11/04 08:56:00;;;;;;;;;;;;;;;15.45;nan;99045.63;5075515;28;20168;-91
2023/11/04 08:58:26;;;;;;;;;;;;;;;15.55;nan;99043.34;5073041;28;19912;-90
2023/11/04 09:00:52;;;;;;;;;;;;;;;15.56;nan;99042.25;5072909;28;19916;-90
2023/11/04 09:03:17;;;;;;;;;;;;;;;15.55;nan;99039.88;5070761;28;19979;-90
2023/11/04 09:05:42;;;;;;;;;;;;;;;15.60;nan;99050.50;5063764;28;19997;-90
2023/11/04 09:08:08;;;;;;;;;;;;;;;15.60;nan;99045.91;5069072;28;20058;-90
2023/11/04 09:10:33;;;;;;;;;;;;;;;15.64;nan;99048.78;5070785;28;20418;-91
2023/11/04 09:12:58;;;;;;;;;;;;;;;15.53;nan;99047.50;5066634;28;19920;-90
2023/11/04 09:15:24;;;;;;;;;;;;;;;15.57;nan;99043.03;5073551;28;19941;-91
2023/11/04 09:17:49;;;;;;;;;;;;;;;15.58;nan;99045.41;5074675;28;19917;-91
2023/11/04 09:20:14;;;;;;;;;;;;;;;15.75;nan;99057.31;5077274;28;19916;-90
2023/11/04 09:22:40;;;;;;;;;;;;;;;15.84;nan;99052.69;5066196;28;19916;-90
2023/11/04 09:25:06;;;;;;;;;;;;;;;15.82;nan;99046.81;5075818;28;19924;-90
2023/11/04 09:27:31;;;;;;;;;;;;;;;15.91;nan;99029.44;5070234;28;19927;-90
2023/11/04 09:29:58;;;;;;;;;;;;;;;16.11;nan;99035.22;5065250;28;19956;-90
2023/11/04 09:32:23;;;;;;;;;;;;;;;16.23;nan;99032.63;5069931;28;19942;-90
2023/11/04 09:34:49;;;;;;;;;;;;;;;16.42;nan;99030.28;5077705;28;19920;-90
2023/11/04 09:37:14;;;;;;;;;;;;;;;16.53;nan;99023.38;5077257;28;19924;-90
2023/11/04 09:39:39;;;;;;;;;;;;;;;16.60;nan;99023.63;5073526;28;19994;-89
2023/11/04 09:42:08;;;;;;;;;;;;;;;16.65;nan;99024.53;5071265;28;19924;-90
2023/11/04 09:44:34;;;;;;;;;;;;;;;16.69;nan;99017.38;5080930;28;20275;-90
2023/11/04 09:47:00;;;;;;;;;;;;;;;16.66;nan;99021.50;5072194;28;19928;-90
2023/11/04 09:49:26;;;;;;;;;;;;;;;16.72;nan;99019.44;5065964;28;19962;-90
2023/11/04 09:51:52;;;;;;;;;;;;;;;16.77;nan;99011.91;5066429;28;19924;-89
2023/11/04 09:54:18;;;;;;;;;;;;;;;16.83;nan;99007.09;5077365;28;19924;-91
2023/11/04 09:56:43;;;;;;;;;;;;;;;16.79;nan;99012.38;5074167;28;19995;-91
2023/11/04 09:59:08;;;;;;;;;;;;;;;16.85;nan;99008.34;5072144;28;20783;-90
2023/11/04 10:01:34;;;;;;;;;;;;;;;16.92;nan;98999.69;5072397;28;19916;-91
2023/11/04 10:03:59;;;;;;;;;;;;;;;16.99;nan;98991.81;5074567;28;20369;-90
2023/11/04 10:06:25;;;;;;;;;;;;;;;17.11;nan;98991.88;5072089;28;19916;-91
2023/11/04 10:08:51;;;;;;;;;;;;;;;17.15;nan;98992.78;5079290;28;19920;-90
2023/11/04 10:11:16;;;;;;;;;;;;;;;17.22;nan;98990.31;5082997;28;20341;-91
2023/11/04 10:13:42;;;;;;;;;;;;;;;17.32;nan;98993.72;5076070;28;19921;-91
2023/11/04 10:16:07;;;;;;;;;;;;;;;17.45;nan;98995.34;5072680;28;20423;-90
2023/11/04 10:18:33;;;;;;;;;;;;;;;17.48;nan;99000.09;5076806;28;20532;-91
2023/11/04 10:20:58;;;;;;;;;;;;;;;17.55;nan;98986.78;5073807;28;20372;-91
2023/11/04 10:23:24;;;;;;;;;;;;;;;17.50;nan;98995.13;5075478;28;19970;-91
2023/11/04 10:25:49;;;;;;;;;;;;;;;17.35;nan;98993.06;5072892;28;19935;-91
2023/11/04 10:28:16;;;;;;;;;;;;;;;17.29;nan;98997.13;5070624;28;19944;-92
2023/11/04 10:30:41;;;;;;;;;;;;;;;17.29;nan;98983.59;5073384;28;19974;-91
2023/11/04 10:33:08;;;;;;;;;;;;;;;17.35;nan;98985.72;5079069;28;19928;-91
2023/11/04 10:35:34;;;;;;;;;;;;;;;17.52;nan;98988.25;5083625;28;19977;-90
2023/11/04 10:38:04;;;;;;;;;;;;;;;17.50;nan;98982.38;5075217;28;19922;-91
2023/11/04 10:40:30;;;;;;;;;;;;;;;17.49;nan;98980.78;5070413;28;19993;-91
2023/11/04 10:43:04;;;;;;;;;;;;;;;17.39;nan;98991.25;5077437;28;20353;-91
2023/11/04 10:45:33;;;;;;;;;;;;;;;17.30;nan;98982.44;5072017;28;19956;-91
2023/11/04 10:47:59;;;;;;;;;;;;;;;17.25;nan;98969.16;5068848;28;19921;-91
2023/11/04 10:50:28;;;;;;;;;;;;;;;17.26;nan;98965.31;5071899;28;19920;-90
2023/11/04 10:53:05;;;;;;;;;;;;;;;17.30;nan;98971.63;5074804;28;19916;-91
2023/11/04 10:55:35;;;;;;;;;;;;;;;17.17;nan;98960.75;5074601;28;19951;-91
2023/11/04 10:58:05;;;;;;;;;;;;;;;17.10;nan;98959.75;5069859;28;20514;-90
2023/11/04 11:00:32;;;;;;;;;;;;;;;17.13;nan;98959.84;5077076;28;20455;-91
2023/11/04 11:02:58;;;;;;;;;;;;;;;17.19;nan;98955.00;5070170;28;20061;-91
2023/11/04 11:05:25;;;;;;;;;;;;;;;17.23;nan;98950.50;5074058;28;20363;-91
2023/11/04 11:07:50;;;;;;;;;;;;;;;17.17;nan;98958.06;5075096;28;19938;-91
2023/11/04 11:10:17;;;;;;;;;;;;;;;17.11;nan;98945.88;5070482;28;20007;-91
2023/11/04 11:12:49;;;;;;;;;;;;;;;17.10;nan;98943.50;5073319;28;19916;-89
2023/11/04 11:15:15;;;;;;;;;;;;;;;17.17;nan;98955.34;5080260;28;19919;-91
2023/11/04 11:17:42;;;;;;;;;;;;;;;17.30;nan;98950.75;5069479;28;19916;-90
2023/11/04 11:20:27;;;;;;;;;;;;;;;17.39;nan;98942.53;5065276;28;20424;-90
2023/11/04 11:22:59;;;;;;;;;;;;;;;17.31;nan;98951.56;5073121;28;19924;-91
2023/11/04 11:25:31;;;;;;;;;;;;;;;17.22;nan;98941.59;5057532;28;20316;-91
2023/11/04 11:27:58;;;;;;;;;;;;;;;17.27;nan;98950.66;5065790;28;19916;-91
2023/11/04 11:30:39;;;;;;;;;;;;;;;17.39;nan;98937.91;5069542;28;20006;-90
2023/11/04 11:33:09;;;;;;;;;;;;;;;17.52;nan;98953.03;5069120;28;19917;-88
2023/11/04 11:36:02;;;;;;;;;;;;;;;17.52;nan;98954.97;5077470;28;20376;-91
2023/11/04 11:38:28;;;;;;;;;;;;;;;17.38;nan;98957.97;5069549;28;20003;-91
2023/11/04 11:40:54;;;;;;;;;;;;;;;17.27;nan;98956.84;5067063;28;20527;-90
2023/11/04 11:43:19;;;;;;;;;;;;;;;17.20;nan;98943.84;5067092;28;19916;-91
2023/11/04 11:45:47;;;;;;;;;;;;;;;17.18;nan;98948.81;5068884;28;20007;-91
2023/11/04 11:48:13;;;;;;;;;;;;;;;17.17;nan;98947.22;5076886;28;19922;-90
2023/11/04 11:50:40;;;;;;;;;;;;;;;17.18;nan;98948.03;5070945;28;19921;-90
2023/11/04 11:53:05;;;;;;;;;;;;;;;17.26;nan;98951.78;5070804;28;19952;-90
2023/11/04 11:55:30;;;;;;;;;;;;;;;17.24;nan;98940.50;5065880;28;19970;-90
2023/11/04 11:57:56;;;;;;;;;;;;;;;17.22;nan;98955.13;5072892;28;20547;-90
2023/11/04 12:00:23;;;;;;;;;;;;;;;17.16;nan;98961.09;5073740;28;19926;-90
2023/11/04 12:02:49;;;;;;;;;;;;;;;17.08;nan;98959.28;5067578;28;19947;-90
2023/11/04 12:05:15;;;;;;;;;;;;;;;17.02;nan;98966.81;5068330;28;19916;-91
2023/11/04 12:07:40;;;;;;;;;;;;;;;17.00;nan;98963.66;5077412;28;19935;-91
2023/11/04 12:10:06;;;;;;;;;;;;;;;17.13;nan;98962.56;5068360;28;20452;-91
2023/11/04 12:12:32;;;;;;;;;;;;;;;17.19;nan;98950.38;5079228;28;19920;-90
2023/11/04 12:15:00;;;;;;;;;;;;;;;17.20;nan;98954.69;5073404;28;19973;-90
2023/11/04 12:17:25;;;;;;;;;;;;;;;17.25;nan;98945.56;5069493;28;19961;-91
2023/11/04 12:19:51;;;;;;;;;;;;;;;17.33;nan;98944.66;5067856;28;19917;-91
2023/11/04 12:22:17;;;;;;;;;;;;;;;17.41;nan;98940.28;5064714;28;19919;-90
2023/11/04 12:24:42;;;;;;;;;;;;;;;17.51;nan;98934.41;5066795;28;19916;-89
2023/11/04 12:27:08;;;;;;;;;;;;;;;17.57;nan;98933.06;5065738;28;19922;-91
2023/11/04 12:29:35;;;;;;;;;;;;;;;17.61;nan;98933.19;5064124;28;19929;-91
2023/11/04 12:32:02;;;;;;;;;;;;;;;17.61;nan;98925.06;5069348;28;19923;-90
2023/11/04 12:34:27;;;;;;;;;;;;;;;17.55;nan;98924.50;5077173;28;19978;-90
2023/11/04 12:36:53;;;;;;;;;;;;;;;17.60;nan;98915.38;5070576;28;20386;-91
2023/11/04 12:39:18;;;;;;;;;;;;;;;17.75;nan;98909.28;5065163;28;19913;-91
2023/11/04 12:41:43;;;;;;;;;;;;;;;17.93;nan;98912.53;5066758;28;19977;-90
2023/11/04 12:44:11;;;;;;;;;;;;;;;18.05;nan;98910.59;5071327;28;19927;-90
2023/11/04 12:46:37;;;;;;;;;;;;;;;18.08;nan;98899.06;5067885;28;19968;-90
2023/11/04 12:49:03;;;;;;;;;;;;;;;18.09;nan;98902.56;5066797;28;19932;-90
2023/11/04 12:51:29;;;;;;;;;;;;;;;18.16;nan;98904.72;5071451;28;19916;-90
2023/11/04 12:53:55;;;;;;;;;;;;;;;18.05;nan;98904.38;5069505;28;19916;-90
2023/11/04 12:56:22;;;;;;;;;;;;;;;18.00;nan;98896.50;5065188;28;19962;-91
2023/11/04 12:58:49;;;;;;;;;;;;;;;18.04;nan;98903.59;5065147;28;19988;-91
2023/11/04 13:01:14;;;;;;;;;;;;;;;18.10;nan;98904.16;5069167;28;19917;-91